Time;durP1;ratioP1;P1;durP2;ratioP2;P2;SDS_P1;SDS_P2;PMS_P1;PMS_P2;Temp;Humidity;BMP_temperature;BMP_pressure;BME280_temperature;BME280_humidity;BME280_pressure;Samples;Min_cycle;Max_cycle;Signal;HPM_P1;HPM_P2
2022/05/29 00:02:10;;;;;;;;;1.00;1.00;;;;;17.53;38.44;101426.84;5069246;27;47270;-71
2022/05/29 00:04:39;;;;;;;;;2.33;1.00;;;;;17.53;38.39;101427.72;5047382;28;45444;-68
2022/05/29 00:07:37;;;;;;;;;1.00;1.00;;;;;17.52;38.36;101419.81;5054503;28;45893;-69
2022/05/29 00:10:22;;;;;;;;;2.00;1.00;;;;;17.47;38.32;101429.63;5045028;28;45927;-70
2022/05/29 00:12:56;;;;;;;;;4.33;2.00;;;;;17.42;38.73;101423.53;5056695;28;46147;-70
2022/05/29 00:15:32;;;;;;;;;0.33;0.00;;;;;17.17;38.91;101408.00;5044657;28;46705;-70
2022/05/29 00:18:06;;;;;;;;;2.00;2.00;;;;;16.92;39.00;101389.81;5055848;28;45448;-70
2022/05/29 00:20:32;;;;;;;;;1.00;1.00;;;;;16.93;39.19;101410.09;5041407;28;45486;-69
2022/05/29 00:23:05;;;;;;;;;1.00;1.00;;;;;17.04;38.99;101430.25;5054419;28;45620;-70
2022/05/29 00:25:43;;;;;;;;;1.00;1.00;;;;;17.06;39.23;101426.69;5041825;28;45372;-69
2022/05/29 00:28:08;;;;;;;;;2.67;0.00;;;;;16.94;39.19;101403.91;5044113;28;45499;-69
2022/05/29 00:30:34;;;;;;;;;1.00;1.00;;;;;16.85;39.01;101384.66;5041957;28;45646;-69
2022/05/29 00:33:00;;;;;;;;;1.00;1.00;;;;;16.95;39.12;101400.34;5061528;28;46579;-68
2022/05/29 00:35:25;;;;;;;;;1.00;1.00;;;;;17.00;39.45;101415.31;5049855;28;45463;-70
2022/05/29 00:37:51;;;;;;;;;2.00;1.00;;;;;17.02;39.43;101419.69;5053549;28;45418;-69
2022/05/29 00:40:32;;;;;;;;;0.67;0.67;;;;;16.89;39.54;101418.94;5078073;27;46107;-68
2022/05/29 00:42:58;;;;;;;;;1.00;1.00;;;;;16.73;39.76;101401.53;5049212;28;46484;-70
2022/05/29 00:45:25;;;;;;;;;1.00;1.00;;;;;16.82;40.00;101421.69;5051849;28;45400;-69
2022/05/29 00:47:50;;;;;;;;;1.33;1.33;;;;;16.81;39.94;101414.69;5058255;28;45448;-70
2022/05/29 00:50:21;;;;;;;;;1.00;1.00;;;;;16.75;39.79;101411.19;5055813;28;45213;-69
2022/05/29 00:52:48;;;;;;;;;1.00;1.00;;;;;16.52;40.30;101386.78;5071735;28;46773;-70
2022/05/29 00:55:19;;;;;;;;;1.33;1.00;;;;;16.71;39.97;101416.53;5054578;28;45562;-69
2022/05/29 00:57:55;;;;;;;;;2.00;1.00;;;;;16.77;40.15;101412.91;5059453;28;45421;-69
2022/05/29 01:00:26;;;;;;;;;1.00;1.00;;;;;16.77;39.85;101413.78;5064067;28;45336;-70
2022/05/29 01:02:55;;;;;;;;;0.00;0.00;;;;;16.71;39.86;101408.59;5058973;28;45764;-70
2022/05/29 01:05:23;;;;;;;;;1.00;1.00;;;;;16.74;40.46;101416.47;5068174;28;45466;-70
2022/05/29 01:08:20;;;;;;;;;1.00;1.00;;;;;16.67;40.20;101383.06;5061337;27;45588;-69
2022/05/29 01:10:49;;;;;;;;;2.00;0.00;;;;;16.79;40.33;101406.75;5061806;28;45674;-71
2022/05/29 01:13:39;;;;;;;;;0.00;0.00;;;;;16.79;40.04;101404.09;5059340;28;45518;-70
2022/05/29 01:16:20;;;;;;;;;1.67;1.67;;;;;16.72;40.06;101399.75;5074130;27;45814;-71
2022/05/29 01:19:03;;;;;;;;;1.33;1.33;;;;;16.56;40.28;101391.13;5058529;28;45462;-71
2022/05/29 01:21:50;;;;;;;;;1.00;1.00;;;;;16.36;40.31;101353.50;5062057;28;45399;-71
2022/05/29 01:24:38;;;;;;;;;1.00;1.00;;;;;16.66;40.21;101395.44;5058157;28;45985;-69
2022/05/29 01:27:57;;;;;;;;;1.00;1.00;;;;;16.52;40.66;101392.94;5046897;28;45487;-71
2022/05/29 01:30:25;;;;;;;;;1.00;1.00;;;;;16.05;40.64;101323.00;5035447;28;46513;-69
2022/05/29 01:33:46;;;;;;;;;1.33;1.00;;;;;16.51;40.88;101388.56;5055236;28;45553;-68
2022/05/29 01:36:26;;;;;;;;;0.00;0.00;;;;;16.44;40.95;101380.72;5014637;28;45588;-69
2022/05/29 01:39:00;;;;;;;;;2.00;1.00;;;;;16.37;40.93;101369.31;5032167;28;45573;-71
2022/05/29 01:41:35;;;;;;;;;2.00;2.00;;;;;16.38;41.34;101383.44;5056550;28;46053;-69
2022/05/29 01:44:40;;;;;;;;;1.00;1.00;;;;;15.94;41.28;101314.31;5055428;28;45558;-70
2022/05/29 01:47:15;;;;;;;;;1.00;1.00;;;;;16.15;41.55;101355.47;5054542;28;47418;-70
2022/05/29 01:49:50;;;;;;;;;3.67;1.33;;;;;16.29;41.34;101385.28;5055273;28;45551;-69
2022/05/29 01:52:45;;;;;;;;;1.00;1.00;;;;;16.22;41.77;101374.81;5058539;28;46532;-70
2022/05/29 01:55:24;;;;;;;;;3.00;1.00;;;;;16.07;42.06;101347.66;5055238;28;45638;-69
2022/05/29 01:58:16;;;;;;;;;3.00;1.00;;;;;16.17;42.03;101372.22;5056149;28;45514;-69
2022/05/29 02:01:05;;;;;;;;;4.33;1.67;;;;;16.10;41.95;101363.47;5053652;28;45552;-70
2022/05/29 02:03:36;;;;;;;;;1.67;1.67;;;;;16.14;42.08;101363.44;5049354;28;46243;-70
2022/05/29 02:10:00;;;;;;;;;0.67;0.33;;;;;16.20;42.18;101380.09;5052184;28;45647;-70
2022/05/29 02:12:32;;;;;;;;;1.00;1.00;;;;;16.19;42.20;101377.47;5050007;28;45503;-68
2022/05/29 02:15:10;;;;;;;;;3.00;2.00;;;;;16.17;42.65;101372.22;5053502;28;45923;-71
2022/05/29 02:17:45;;;;;;;;;1.00;1.00;;;;;15.89;42.43;101329.34;5051406;28;45365;-69
2022/05/29 02:20:20;;;;;;;;;1.33;1.33;;;;;15.98;42.68;101357.44;5055058;28;46238;-70
2022/05/29 02:22:52;;;;;;;;;1.00;1.00;;;;;16.02;42.88;101365.31;5052119;28;45520;-70
2022/05/29 02:25:22;;;;;;;;;1.00;1.00;;;;;15.96;42.98;101359.22;5052358;28;45551;-70
2022/05/29 02:28:20;;;;;;;;;1.00;1.00;;;;;15.98;42.81;101360.97;5054492;28;45540;-69
2022/05/29 02:30:59;;;;;;;;;2.00;2.00;;;;;16.04;42.88;101357.38;5050544;28;46145;-70
2022/05/29 02:33:44;;;;;;;;;2.67;1.33;;;;;15.96;43.20;101353.94;5055018;28;45489;-69
2022/05/29 02:36:29;;;;;;;;;1.00;1.00;;;;;16.02;43.08;101354.75;5057811;28;45334;-69
2022/05/29 02:39:14;;;;;;;;;1.33;1.00;;;;;16.04;42.98;101347.69;5055531;28;45563;-69
2022/05/29 02:41:49;;;;;;;;;1.00;1.00;;;;;16.04;43.14;101339.75;5053458;28;46434;-68
2022/05/29 02:45:02;;;;;;;;;;;;;;;;;;;;;
2022/05/29 02:48:02;;;;;;;;;2.00;0.67;;;;;16.05;42.84;101349.44;5051030;28;68009;-71
2022/05/29 02:50:51;;;;;;;;;1.00;1.00;;;;;16.01;43.40;101360.91;5052341;28;45582;-69
2022/05/29 02:53:18;;;;;;;;;2.33;2.00;;;;;15.68;43.38;101290.78;5085517;27;46573;-69
2022/05/29 02:55:48;;;;;;;;;1.00;1.00;;;;;15.77;43.36;101321.56;5056737;28;45781;-69
2022/05/29 02:58:21;;;;;;;;;1.00;1.00;;;;;15.72;43.62;101311.03;5056702;28;45446;-68
2022/05/29 03:00:57;;;;;;;;;1.33;1.00;;;;;15.88;43.68;101341.69;5054643;28;46296;-69
2022/05/29 03:03:30;;;;;;;;;1.00;1.00;;;;;15.78;43.99;101321.56;5055610;28;46090;-69
2022/05/29 03:06:22;;;;;;;;;3.00;1.67;;;;;15.87;43.68;101339.03;5083970;27;45597;-70
2022/05/29 03:09:13;;;;;;;;;2.67;2.00;;;;;15.82;43.66;101339.09;5051537;28;45559;-69
2022/05/29 03:11:43;;;;;;;;;1.00;1.00;;;;;15.74;43.81;101318.97;5054824;28;46766;-69
2022/05/29 03:14:27;;;;;;;;;3.00;1.33;;;;;15.82;43.90;101340.88;5054755;28;45622;-71
2022/05/29 03:17:06;;;;;;;;;3.33;2.00;;;;;15.80;43.76;101342.66;5055403;28;45520;-70
2022/05/29 03:19:41;;;;;;;;;1.00;1.00;;;;;15.79;44.19;101339.13;5086053;27;45509;-71
2022/05/29 03:22:38;;;;;;;;;1.00;1.00;;;;;15.69;44.40;101342.72;5083865;27;45432;-70
2022/05/29 03:25:22;;;;;;;;;3.00;1.00;;;;;15.61;44.25;101326.06;5052496;28;46077;-71
2022/05/29 03:27:51;;;;;;;;;2.00;2.00;;;;;15.24;44.36;101265.72;5051971;28;45638;-68
2022/05/29 03:30:21;;;;;;;;;2.67;2.67;;;;;15.63;44.32;101338.38;5052288;28;45579;-70
2022/05/29 03:32:49;;;;;;;;;4.67;2.00;;;;;15.65;44.24;101333.06;5053435;28;45648;-70
2022/05/29 03:35:27;;;;;;;;;4.67;2.67;;;;;15.67;44.23;101328.66;5052649;28;45631;-71
2022/05/29 03:37:57;;;;;;;;;4.00;2.00;;;;;15.60;44.75;101311.13;5053173;28;45585;-70
2022/05/29 03:40:25;;;;;;;;;5.00;3.00;;;;;15.27;44.52;101273.59;5053506;28;46372;-70
2022/05/29 03:42:51;;;;;;;;;2.00;2.00;;;;;15.35;44.48;101308.72;5053301;28;45386;-69
2022/05/29 03:45:18;;;;;;;;;2.00;2.00;;;;;15.45;44.86;101325.34;5085771;27;46689;-71
2022/05/29 03:47:46;;;;;;;;;3.33;2.00;;;;;15.00;45.03;101266.78;5053417;28;45421;-71
2022/05/29 03:50:16;;;;;;;;;1.00;1.00;;;;;15.34;45.30;101329.84;5053592;28;45441;-70
2022/05/29 03:52:42;;;;;;;;;3.00;1.00;;;;;15.28;44.99;101317.59;5055480;28;46685;-70
2022/05/29 03:55:09;;;;;;;;;1.00;1.00;;;;;15.25;45.38;101318.44;5052665;28;45669;-71
2022/05/29 03:57:37;;;;;;;;;3.00;1.33;;;;;15.33;45.19;101325.44;5055115;28;45964;-71
2022/05/29 04:00:05;;;;;;;;;2.00;1.00;;;;;15.32;45.30;101328.97;5052071;28;45530;-70
2022/05/29 04:02:31;;;;;;;;;2.00;2.00;;;;;15.25;45.53;101315.81;5055260;28;45442;-70
2022/05/29 04:04:57;;;;;;;;;3.00;1.67;;;;;15.34;45.39;101332.47;5052330;28;46304;-70
2022/05/29 04:12:03;;;;;;;;;1.00;1.00;;;;;15.23;45.55;101325.53;5056590;28;45485;-68
2022/05/29 04:12:59;;;;;;;;;2.67;1.67;;;;;14.94;45.72;101296.72;5050610;28;45480;-70
2022/05/29 04:15:27;;;;;;;;;2.67;1.00;;;;;15.10;45.81;101328.28;5051839;28;46134;-70
2022/05/29 04:17:53;;;;;;;;;2.00;2.00;;;;;15.13;45.78;101331.75;5052207;28;45476;-70
2022/05/29 04:20:18;;;;;;;;;1.00;1.00;;;;;15.11;45.65;101322.09;5052507;28;45452;-69
2022/05/29 04:22:45;;;;;;;;;2.00;1.67;;;;;15.03;45.60;101301.06;5051964;28;45467;-70
2022/05/29 04:25:11;;;;;;;;;1.00;1.00;;;;;15.23;45.33;101330.81;5052577;28;45450;-69
2022/05/29 04:27:36;;;;;;;;;1.33;1.33;;;;;15.08;45.81;101301.03;5051476;28;45996;-69
2022/05/29 04:30:05;;;;;;;;;3.00;2.00;;;;;15.27;45.67;101337.78;5052971;27;46715;-70
2022/05/29 04:35:15;;;;;;;;;2.00;2.00;;;;;15.25;45.79;101329.00;5051478;28;45833;-71
2022/05/29 04:37:41;;;;;;;;;3.00;1.00;;;;;15.16;45.92;101317.66;5056731;28;45807;-72
2022/05/29 04:40:07;;;;;;;;;1.00;1.00;;;;;14.97;46.17;101280.88;5052716;28;45710;-70
2022/05/29 04:42:34;;;;;;;;;2.00;2.00;;;;;15.13;45.71;101309.78;5052162;28;45541;-70
2022/05/29 04:45:00;;;;;;;;;2.00;2.00;;;;;15.13;46.01;101315.91;5051234;28;45543;-71
2022/05/29 04:47:27;;;;;;;;;1.67;1.67;;;;;15.12;45.85;101316.81;5051357;28;45452;-70
2022/05/29 04:49:53;;;;;;;;;2.00;2.00;;;;;15.23;46.01;101330.81;5053262;28;45649;-70
2022/05/29 04:52:19;;;;;;;;;1.00;1.00;;;;;15.02;45.47;101275.56;5053221;28;45811;-70
2022/05/29 04:54:45;;;;;;;;;2.00;2.00;;;;;15.02;46.12;101288.75;5052003;28;45447;-71
2022/05/29 04:57:12;;;;;;;;;4.00;2.00;;;;;15.19;45.86;101328.22;5053003;28;45519;-72
2022/05/29 04:59:38;;;;;;;;;2.00;2.00;;;;;15.11;46.28;101322.97;5054118;28;45638;-68
2022/05/29 05:02:04;;;;;;;;;2.00;2.00;;;;;14.75;46.04;101260.81;5055131;28;45484;-69
2022/05/29 05:04:33;;;;;;;;;4.67;3.00;;;;;15.06;46.26;101319.47;5054460;28;46332;-68
2022/05/29 05:07:00;;;;;;;;;2.00;2.00;;;;;14.84;47.08;101313.50;5055217;28;45534;-68
2022/05/29 05:09:27;;;;;;;;;2.67;2.67;;;;;14.66;47.05;101301.28;5058446;28;45642;-70
2022/05/29 05:11:54;;;;;;;;;1.33;1.33;;;;;14.51;47.29;101306.63;5054286;28;45531;-69
2022/05/29 05:14:20;;;;;;;;;1.00;1.00;;;;;14.53;47.77;101325.94;5059306;28;46233;-68
2022/05/29 05:16:49;;;;;;;;;2.33;2.33;;;;;14.45;48.20;101325.09;5055066;28;45447;-71
2022/05/29 05:19:16;;;;;;;;;3.33;3.00;;;;;14.42;47.85;101311.03;5055565;28;45909;-70
2022/05/29 05:21:42;;;;;;;;;2.67;2.67;;;;;14.62;47.75;101325.94;5055750;28;45397;-69
2022/05/29 05:24:08;;;;;;;;;3.25;3.25;;;;;14.53;48.03;101336.47;5086247;27;45441;-69
2022/05/29 05:26:34;;;;;;;;;4.33;4.00;;;;;14.37;48.11;101333.91;5054975;28;45847;-69
2022/05/29 05:29:00;;;;;;;;;2.00;2.00;;;;;14.24;48.41;101302.31;5056207;28;45475;-68
2022/05/29 05:31:29;;;;;;;;;4.00;2.00;;;;;14.35;48.36;101333.03;5054929;28;45296;-71
2022/05/29 05:33:55;;;;;;;;;3.00;3.00;;;;;14.36;48.70;101323.38;5054508;28;46381;-69
2022/05/29 05:36:21;;;;;;;;;2.25;2.25;;;;;13.71;48.45;101201.59;5053859;28;45540;-70
2022/05/29 05:38:47;;;;;;;;;2.75;2.00;;;;;14.47;48.25;101302.25;5053982;28;45531;-69
2022/05/29 05:41:14;;;;;;;;;1.33;1.33;;;;;14.50;48.18;101304.84;5054786;28;45476;-70
2022/05/29 05:43:40;;;;;;;;;3.00;3.00;;;;;14.43;48.23;101289.09;5053285;28;46810;-70
2022/05/29 05:46:12;;;;;;;;;5.00;3.67;;;;;14.49;48.11;101317.16;5054872;28;45468;-70
2022/05/29 05:48:39;;;;;;;;;3.00;3.00;;;;;14.40;48.06;101299.66;5050903;28;45670;-70
2022/05/29 05:51:08;;;;;;;;;5.00;2.25;;;;;14.40;48.63;101297.00;5053118;28;45584;-69
2022/05/29 05:53:39;;;;;;;;;2.00;2.00;;;;;14.58;48.16;101306.59;5051677;28;45553;-71
2022/05/29 05:56:20;;;;;;;;;1.67;1.67;;;;;14.81;47.68;101319.66;5054236;28;45282;-71
2022/05/29 05:58:47;;;;;;;;;29.00;26.25;;;;;15.10;47.84;101338.81;5048986;28;46495;-70
2022/05/29 06:01:15;;;;;;;;;4.67;2.00;;;;;15.20;47.43;101336.09;5056830;28;45415;-71
2022/05/29 06:03:41;;;;;;;;;4.00;2.33;;;;;14.99;47.85;101271.16;5050622;28;46061;-71
2022/05/29 06:06:08;;;;;;;;;2.00;2.00;;;;;15.23;47.05;101287.69;5054200;28;45354;-70
2022/05/29 06:08:35;;;;;;;;;3.67;2.33;;;;;15.40;47.02;101306.91;5052086;27;45839;-70
2022/05/29 06:11:03;;;;;;;;;2.00;2.00;;;;;15.50;46.71;101334.09;5050123;28;45674;-70
2022/05/29 06:13:33;;;;;;;;;2.33;1.67;;;;;15.30;46.89;101317.53;5049257;28;45587;-71
2022/05/29 06:16:03;;;;;;;;;4.00;3.00;;;;;15.31;47.60;101332.50;5051667;28;45607;-67
2022/05/29 06:18:41;;;;;;;;;2.00;2.00;;;;;15.16;46.61;101283.34;5054765;28;45619;-69
2022/05/29 06:21:10;;;;;;;;;1.00;1.00;;;;;15.55;46.79;101329.66;5053329;28;45602;-71
2022/05/29 06:23:38;;;;;;;;;2.00;1.00;;;;;15.70;46.29;101323.38;5052861;28;45650;-70
2022/05/29 06:26:13;;;;;;;;;2.00;2.00;;;;;15.84;45.87;101320.59;5052482;28;46162;-70
2022/05/29 06:28:40;;;;;;;;;2.00;2.00;;;;;15.96;45.73;101324.88;5050954;28;46105;-69
2022/05/29 06:31:11;;;;;;;;;2.00;2.00;;;;;15.82;46.02;101307.41;5052899;28;45387;-69
2022/05/29 06:33:38;;;;;;;;;1.00;1.00;;;;;15.84;46.08;101310.91;5053023;28;46283;-71
2022/05/29 06:36:23;;;;;;;;;2.67;2.67;;;;;15.97;45.39;101322.22;5051483;28;45516;-71
2022/05/29 06:38:52;;;;;;;;;4.00;2.67;;;;;15.97;45.37;101323.97;5051361;28;45328;-68
2022/05/29 06:41:21;;;;;;;;;2.67;2.00;;;;;15.98;45.28;101321.31;5053729;28;46569;-70
2022/05/29 06:43:56;;;;;;;;;1.00;1.00;;;;;16.04;45.34;101310.69;5054322;28;46179;-71
2022/05/29 06:47:03;;;;;;;;;3.00;2.00;;;;;16.06;44.71;101303.63;5052701;28;45564;-70
2022/05/29 06:49:30;;;;;;;;;4.67;3.00;;;;;15.84;44.27;101275.69;5056043;28;45475;-68
2022/05/29 06:51:55;;;;;;;;;2.00;2.00;;;;;15.73;44.50;101283.75;5051028;28;45633;-68
2022/05/29 06:54:21;;;;;;;;;3.67;1.00;;;;;15.60;44.57;101293.50;5052851;28;45512;-70
2022/05/29 06:56:47;;;;;;;;;2.00;2.00;;;;;15.76;44.66;101318.03;5055297;28;45504;-69
2022/05/29 06:59:13;;;;;;;;;2.00;2.00;;;;;14.92;45.17;101157.81;5052328;28;46506;-70
2022/05/29 07:07:21;;;;;;;;;1.33;1.33;;;;;16.20;45.20;101287.59;5041063;28;45506;-70
2022/05/29 07:09:46;;;;;;;;;1.67;1.00;;;;;16.65;44.77;101318.75;5067449;28;45563;-70
2022/05/29 07:12:21;;;;;;;;;3.00;1.67;;;;;16.38;43.55;101254.78;5051000;28;45502;-74
2022/05/29 07:14:58;;;;;;;;;0.00;0.00;;;;;16.93;42.67;101314.81;5052638;28;46384;-73
2022/05/29 07:17:27;;;;;;;;;4.00;2.00;;;;;16.78;42.03;101320.31;5052237;28;45528;-69
2022/05/29 07:19:53;;;;;;;;;3.00;3.00;;;;;16.59;42.58;101324.13;5050123;28;45768;-71
2022/05/29 07:22:22;;;;;;;;;3.33;1.67;;;;;16.43;42.34;101303.16;5051427;28;46491;-70
2022/05/29 07:24:48;;;;;;;;;2.00;1.67;;;;;16.30;41.75;101317.41;5050824;28;45686;-67
2022/05/29 07:27:14;;;;;;;;;3.00;1.00;;;;;15.89;42.16;101295.88;5055360;28;45639;-70
2022/05/29 07:29:45;;;;;;;;;2.00;2.00;;;;;15.65;42.04;101288.19;5053024;28;45584;-72
2022/05/29 07:32:11;;;;;;;;;1.67;1.67;;;;;15.84;42.94;101315.31;5049736;28;45651;-70
2022/05/29 07:34:37;;;;;;;;;1.00;1.00;;;;;16.01;42.57;101305.44;5051931;28;45492;-71
2022/05/29 07:37:06;;;;;;;;;3.00;1.67;;;;;16.05;42.00;101267.53;5051159;28;45728;-70
2022/05/29 07:39:37;;;;;;;;;1.00;1.00;;;;;16.51;41.60;101309.25;5051701;28;45480;-70
2022/05/29 07:44:52;;;;;;;;;1.00;1.00;;;;;16.78;41.03;101288.59;5053182;28;45899;-72
2022/05/29 07:47:19;;;;;;;;;1.67;1.67;;;;;16.82;40.21;101277.06;5053609;28;45472;-71
2022/05/29 07:49:45;;;;;;;;;2.00;2.00;;;;;17.11;40.28;101295.16;5055421;28;46021;-71
2022/05/29 07:52:10;;;;;;;;;3.00;3.00;;;;;16.97;39.33;101288.34;5055301;28;45873;-72
2022/05/29 07:54:42;;;;;;;;;5.00;3.00;;;;;16.82;39.91;101289.44;5052489;28;46129;-72
2022/05/29 07:57:08;;;;;;;;;2.67;2.00;;;;;16.58;39.88;101262.41;5054320;28;45849;-72
2022/05/29 07:59:34;;;;;;;;;2.00;2.00;;;;;16.72;39.82;101268.38;5053440;28;45437;-72
2022/05/29 08:02:00;;;;;;;;;2.00;1.00;;;;;17.00;39.19;101285.63;5054050;27;45592;-71
2022/05/29 08:04:27;;;;;;;;;1.00;1.00;;;;;17.25;38.88;101302.88;5052566;28;46357;-73
2022/05/29 08:06:56;;;;;;;;;1.33;1.33;;;;;17.40;38.59;101282.34;5055057;28;45460;-72
2022/05/29 08:09:22;;;;;;;;;2.33;2.00;;;;;17.52;38.12;101292.69;5053819;28;45477;-69
2022/05/29 08:11:51;;;;;;;;;13.00;10.33;;;;;17.40;38.36;101262.03;5053244;28;45550;-71
2022/05/29 08:14:17;;;;;;;;;29.00;24.75;;;;;17.05;38.35;101197.31;5052750;28;45496;-73
2022/05/29 08:16:42;;;;;;;;;12.67;10.67;;;;;17.56;37.65;101276.72;5054853;28;45521;-73
2022/05/29 08:19:12;;;;;;;;;22.75;21.00;;;;;17.36;37.54;101245.28;5055198;28;45608;-71
2022/05/29 08:21:41;;;;;;;;;20.25;17.50;;;;;17.17;37.43;101212.97;5055207;28;45575;-74
2022/05/29 08:32:21;;;;;;;;;41.00;36.50;;;;;17.14;38.71;101230.72;5057468;28;45453;-72
2022/05/29 08:34:46;;;;;;;;;22.00;22.00;;;;;17.11;37.90;101217.53;5055490;28;46102;-73
2022/05/29 08:37:12;;;;;;;;;38.25;33.50;;;;;17.51;38.53;101275.94;5060106;28;45893;-73
2022/05/29 08:39:41;;;;;;;;;77.75;61.50;;;;;17.60;40.04;101282.81;5057307;28;45455;-73
2022/05/29 08:42:08;;;;;;;;;65.25;51.75;;;;;17.49;38.46;101243.31;5055976;28;45464;-70
2022/05/29 08:44:45;;;;;;;;;32.50;30.00;;;;;17.53;37.39;101247.63;5056592;28;46400;-70
2022/05/29 08:47:11;;;;;;;;;17.33;16.00;;;;;17.77;37.22;101272.81;5055344;28;45691;-73
2022/05/29 08:49:46;;;;;;;;;4.00;4.00;;;;;17.67;36.76;101270.34;5054353;28;46474;-73
2022/05/29 08:52:20;;;;;;;;;1.33;1.33;;;;;17.57;37.05;101267.88;5055604;28;45538;-73
2022/05/29 08:54:49;;;;;;;;;2.00;2.00;;;;;17.53;37.75;101270.59;5055434;28;45732;-70
2022/05/29 08:57:37;;;;;;;;;65.50;50.50;;;;;17.63;42.79;101272.19;5061162;28;45435;-74
2022/05/29 09:00:20;;;;;;;;;60.00;45.75;;;;;17.76;41.08;101263.09;5071282;28;45519;-73
2022/05/29 09:03:05;;;;;;;;;52.00;41.00;;;;;17.99;39.39;101262.69;5061199;28;45574;-74
2022/05/29 09:05:44;;;;;;;;;49.25;39.50;;;;;17.93;39.50;101219.53;5054953;28;45602;-71
2022/05/29 09:08:27;;;;;;;;;49.00;39.50;;;;;18.28;38.70;101239.13;5058023;28;45524;-69
2022/05/29 09:11:10;;;;;;;;;28.50;24.75;;;;;18.54;37.63;101250.00;5062432;27;45341;-72
2022/05/29 09:13:45;;;;;;;;;27.00;25.50;;;;;18.68;38.04;101248.84;5059483;28;45344;-74
2022/05/29 09:16:21;;;;;;;;;27.75;24.00;;;;;18.55;38.32;101209.28;5057193;28;46525;-72
2022/05/29 09:19:13;;;;;;;;;19.00;14.33;;;;;18.88;38.00;101229.78;5055087;28;45753;-72
2022/05/29 09:21:54;;;;;;;;;15.33;12.33;;;;;19.02;35.63;101240.94;5057335;28;45588;-69
2022/05/29 09:24:31;;;;;;;;;4.00;3.00;;;;;19.00;35.09;101237.44;5056992;28;45778;-70
2022/05/29 09:27:19;;;;;;;;;2.00;1.00;;;;;18.73;34.80;101207.13;5056825;28;46141;-70
2022/05/29 09:29:45;;;;;;;;;1.00;1.00;;;;;18.78;32.63;101243.28;5087776;27;45400;-72
2022/05/29 09:32:22;;;;;;;;;5.00;2.00;;;;;18.67;32.54;101212.56;5056054;28;45310;-71
2022/05/29 09:50:19;;;;;;;;;11.33;10.00;;;;;18.72;35.71;101178.84;5135157;27;45504;-70
2022/05/29 09:52:46;;;;;;;;;9.33;6.00;;;;;18.75;34.53;101187.59;5135781;27;45525;-69
2022/05/29 09:58:51;;;;;;;;;11.67;10.00;;;;;19.09;35.52;101215.97;5134396;27;45547;-70
2022/05/29 10:42:39;;;;;;;;;1.33;1.33;;;;;19.36;32.98;101198.47;5135053;27;45416;-69
2022/05/29 10:45:06;;;;;;;;;1.00;1.00;;;;;19.53;33.05;101190.03;5134051;27;45498;-69
2022/05/29 10:48:07;;;;;;;;;1.33;0.67;;;;;19.69;32.52;101185.16;5126566;27;45477;-70
2022/05/29 10:51:06;;;;;;;;;2.00;1.00;;;;;19.69;32.29;101180.75;5038618;28;45545;-71
2022/05/29 10:54:00;;;;;;;;;1.00;1.00;;;;;19.41;32.89;101153.16;5118709;27;45318;-70
2022/05/29 10:56:28;;;;;;;;;2.00;2.00;;;;;19.40;32.90;101184.16;5115167;27;45401;-70
2022/05/29 10:59:19;;;;;;;;;1.00;1.00;;;;;19.32;32.36;101186.16;5120154;27;45550;-70
2022/05/29 11:05:11;;;;;;;;;1.33;1.33;;;;;19.16;32.40;101174.22;5120471;27;45459;-71
2022/05/29 11:08:10;;;;;;;;;0.00;0.00;;;;;18.84;32.64;101125.50;5120929;27;45513;-72
2022/05/29 11:10:55;;;;;;;;;2.00;1.00;;;;;19.02;33.00;101166.63;5121144;27;45381;-71
2022/05/29 11:13:59;;;;;;;;;2.00;1.33;;;;;18.98;33.37;101168.50;5116214;27;47041;-68
2022/05/29 11:17:06;;;;;;;;;2.67;2.67;;;;;18.81;33.41;101147.66;5117755;27;45616;-71
2022/05/29 11:19:47;;;;;;;;;2.00;2.00;;;;;18.91;32.73;101166.91;5119239;27;45489;-71
2022/05/29 11:22:24;;;;;;;;;2.00;2.00;;;;;19.06;32.61;101157.66;5109698;27;45474;-70
2022/05/29 11:25:25;;;;;;;;;1.00;1.00;;;;;19.18;31.67;101159.13;5118781;27;46437;-72
2022/05/29 11:28:15;;;;;;;;;1.33;1.33;;;;;18.99;31.13;101146.34;5109602;27;45504;-71
2022/05/29 11:31:10;;;;;;;;;3.00;2.00;;;;;18.96;30.81;101145.53;5119037;27;45567;-70
2022/05/29 11:33:56;;;;;;;;;3.00;2.00;;;;;18.94;30.47;101137.63;5095402;27;45424;-71
2022/05/29 11:37:13;;;;;;;;;2.00;2.00;;;;;18.61;30.92;101103.03;5119877;27;45575;-67
2022/05/29 11:39:54;;;;;;;;;1.00;1.00;;;;;18.59;31.30;101122.56;5118412;27;45690;-71
2022/05/29 11:42:31;;;;;;;;;2.33;2.33;;;;;18.20;31.76;101051.94;5120040;27;45374;-70
2022/05/29 11:45:06;;;;;;;;;2.00;2.00;;;;;18.34;32.14;101035.69;5121956;27;45433;-71
2022/05/29 11:53:31;;;;;;;;;1.00;1.00;;;;;19.32;31.64;101111.81;5120018;27;45323;-71
2022/05/29 11:56:03;;;;;;;;;0.00;0.00;;;;;19.43;31.53;101112.38;5118646;27;45621;-69
2022/05/29 11:58:46;;;;;;;;;1.00;1.00;;;;;19.28;31.11;101073.84;5116727;27;48141;-70
2022/05/29 12:01:21;;;;;;;;;1.00;1.00;;;;;19.19;30.94;101030.75;5120044;27;45529;-71
2022/05/29 12:04:05;;;;;;;;;1.33;1.33;;;;;19.45;30.92;101065.38;5107912;27;45373;-71
2022/05/29 12:06:53;;;;;;;;;1.33;1.33;;;;;19.54;30.25;101060.72;5105345;27;45398;-70
2022/05/29 12:09:27;;;;;;;;;2.00;2.00;;;;;19.67;29.59;101091.28;5119269;27;46734;-71
2022/05/29 12:12:02;;;;;;;;;3.33;1.67;;;;;19.54;30.21;101071.34;5119353;27;45412;-71
2022/05/29 12:14:39;;;;;;;;;1.00;1.00;;;;;19.77;29.77;101074.22;5119975;27;45460;-72
2022/05/29 12:17:19;;;;;;;;;0.33;0.33;;;;;19.82;29.96;101080.25;5119574;27;45434;-70
2022/05/29 12:19:50;;;;;;;;;2.00;1.00;;;;;19.91;30.00;101064.00;5118694;27;45477;-70
2022/05/29 12:22:25;;;;;;;;;1.00;1.00;;;;;19.79;29.95;101048.47;5119333;27;45432;-71
2022/05/29 12:24:53;;;;;;;;;1.00;1.00;;;;;19.74;29.68;101039.72;5119979;27;45546;-71
2022/05/29 12:27:22;;;;;;;;;1.00;1.00;;;;;19.77;29.48;101033.47;5119465;27;45207;-71
2022/05/29 12:29:54;;;;;;;;;1.67;1.33;;;;;19.99;29.53;101065.56;5118305;27;45979;-69
2022/05/29 12:32:25;;;;;;;;;1.00;1.00;;;;;20.06;29.50;101059.13;5103952;27;45547;-69
2022/05/29 12:35:00;;;;;;;;;3.00;1.00;;;;;20.12;28.76;101045.59;5108644;27;45574;-70
2022/05/29 12:37:53;;;;;;;;;1.00;1.00;;;;;20.33;28.95;101050.25;5099593;27;45590;-69
2022/05/29 12:41:00;;;;;;;;;2.33;1.00;;;;;20.29;28.63;101048.59;5117046;27;46273;-69
2022/05/29 12:43:50;;;;;;;;;1.00;1.00;;;;;20.32;29.12;101063.59;5054151;28;46027;-68
2022/05/29 12:46:34;;;;;;;;;2.00;2.00;;;;;20.23;28.71;101062.09;5054266;28;45436;-68
2022/05/29 12:49:34;;;;;;;;;1.33;1.33;;;;;20.01;28.46;101063.72;5111212;27;45398;-67
2022/05/29 12:52:22;;;;;;;;;1.00;1.00;;;;;19.90;28.86;101056.94;5118401;27;46226;-71
2022/05/29 12:54:56;;;;;;;;;2.33;1.00;;;;;19.83;28.98;101070.47;5105875;27;45365;-67
2022/05/29 12:57:39;;;;;;;;;1.67;1.67;;;;;19.31;28.48;100992.34;5117967;27;45531;-70
2022/05/29 13:00:26;;;;;;;;;3.67;2.33;;;;;19.43;28.60;101059.25;5112967;27;45559;-69
2022/05/29 13:03:06;;;;;;;;;1.67;1.67;;;;;18.98;28.54;101057.00;5114750;27;46440;-69
2022/05/29 13:06:07;;;;;;;;;2.00;2.00;;;;;18.89;29.06;101059.91;5117726;27;45256;-68
2022/05/29 13:08:50;;;;;;;;;2.00;2.00;;;;;18.91;29.26;101062.50;5118028;27;45862;-68
2022/05/29 13:11:20;;;;;;;;;1.00;1.00;;;;;18.96;29.36;101058.81;5117219;27;45445;-68
2022/05/29 13:13:51;;;;;;;;;1.00;1.00;;;;;19.09;29.11;101053.16;5116009;27;46662;-67
2022/05/29 13:16:26;;;;;;;;;1.00;1.00;;;;;19.31;28.89;101050.75;5117507;27;45436;-69
2022/05/29 13:19:14;;;;;;;;;1.33;1.33;;;;;19.33;28.03;101049.78;5117382;27;45238;-71
2022/05/29 13:21:53;;;;;;;;;2.00;2.00;;;;;19.26;28.60;101041.13;5115285;27;45274;-70
2022/05/29 13:24:19;;;;;;;;;1.00;1.00;;;;;19.38;28.72;101036.38;5117419;27;46683;-69
2022/05/29 13:27:13;;;;;;;;;3.00;3.00;;;;;19.46;29.29;101032.59;5117070;27;45420;-71
2022/05/29 13:30:05;;;;;;;;;2.33;2.33;;;;;19.46;29.00;101032.59;5117663;27;45496;-69
2022/05/29 13:32:33;;;;;;;;;1.33;1.33;;;;;19.46;28.89;101034.38;5110868;27;45523;-67
2022/05/29 13:35:04;;;;;;;;;2.00;2.00;;;;;19.41;28.42;101028.31;5117130;27;45845;-70
2022/05/29 13:37:46;;;;;;;;;2.00;2.00;;;;;19.43;28.60;101024.72;5117723;27;45297;-69